Prince George, VA (23875)

2:14 PM EDT on September 30, 2014 (GMT -0400)
RAWS JAMES RIVER VA US | Change Station
CLOSE
Current Station
Personal Weather Station
Location: Spring Grove, VA
Elevation: 49 ft
Nearby Weather Stations

Elev 49 ft 37.26 °N, 77.14 °W | Updated 48 minutes ago

Overcast
Overcast
70 °F
Feels Like 70 °F
N
1
Wind Variable Wind from NW
Gusts 4.0 mph

Today
High -- | Low -- °F
--% Chance of Precip.
Yesterday
High -- | Low -- °F
Precip. -- in
7:03 AM 6:53 PM
Waxing Crescent, 39% visible
Pressure 29.91 in
Visibility 10.0 miles
Clouds Overcast 1900 ft
Dew Point 66 °F
Humidity 88%
Rainfall 0.11 in
Snow Depth Not available.
UV 2 out of 12
Pollen 3.40 out of 12
Ozone Good
PM2.5 Moderate
Flu Activity Not available.
METAR KPTB 301755Z AUTO 00000KT 10SM OVC019 22/16 A2991 RMK AO2 T02150156 10215 20176

More Conditions Fewer Conditions

Pressure 29.91 in
Visibility 10.0 miles
Clouds Overcast 1900 ft
Dew Point 66 °F
Humidity 88%
Rainfall 0.11 in
Snow Depth Not available.
UV 2 out of 12
Pollen 3.40 out of 12
Ozone Good
PM2.5 Moderate
Flu Activity Not available.
METAR KPTB 301755Z AUTO 00000KT 10SM OVC019 22/16 A2991 RMK AO2 T02150156 10215 20176

More Conditions Fewer Conditions

10-Day Weather Forecast

Almanac

Astronomy

Sep. 30, 2014 Rise Set
Actual Time 7:03 AM EDT 6:53 PM EDT
Civil Twilight 6:37 AM EDT 7:19 PM EDT
Nautical Twilight 6:07 AM EDT 7:49 PM EDT
Astronomical Twilight 5:36 AM EDT 8:20 PM EDT
Moon 1:03 PM EDT 11:27 PM EDT
Length of Visible Light 12h 42m
Length of Day
11h 50m
Tomorrow will be 2m 22s shorter.
Waxing Crescent, 39% of the Moon is Illuminated
Today
Waxing Crescent
Oct 1
First Quarter
Oct 8
Full
Oct 15
Last Quarter
Oct 23
New

Today's Extremes

State Highs State Lows

Community

WunderPhotos

Upload Photos

1,757,710 photos uploaded!

Nearby

Air Quality

  Air Quality AQ Index Pollutant
Yesterday Good
PM2.5
Yesterday Good
OZONE
Current Moderate
PM2.5
Current Good
OZONE
Tuesday Good
PM2.5
Wednesday Moderate
PM2.5

Snow Depth

Station Depth Elevation
No new snow has been reported.

Earthquake Activity

City Distance Mag. Time & Date
No recent earthquake activity has been reported nearby.
Minimum magnitude displayed is 2.5.

Coastal Water Temperatures

Place Temperature
No Stations Reporting

Nearby Weather Stations